Terminal Aerodrome Forecast
Issued by NWS

Home | Current Version | Previous Version | Text Only | Print | Product List | Glossary On
Versions: 1 2 3 4 5 6 7 8 9 10 11 12 13 14
000
FTUS46 KMTR 261720
TAFSNS
TAF
KSNS 261720Z 2618/2718 25010KT P6SM OVC012
     FM262000 27014G21KT P6SM FEW015
     FM270300 25010KT P6SM OVC012
     FM271000 24003KT P6SM OVC008=

USA.gov is the U.S. government's official web portal to all federal, state and local government web resources and services.